sensor_id;sensor_type;location;lat;lon;timestamp;P1;durP1;ratioP1;P2;durP2;ratioP2
48871;SDS011;36154;51.674;7.824;2022-07-22T00:01:12;1.35;;;0.45;;
48871;SDS011;36154;51.674;7.824;2022-07-22T00:03:38;1.73;;;0.40;;
48871;SDS011;36154;51.674;7.824;2022-07-22T00:06:03;0.30;;;0.30;;
48871;SDS011;36154;51.674;7.824;2022-07-22T00:08:28;1.30;;;0.30;;
48871;SDS011;36154;51.674;7.824;2022-07-22T00:10:54;0.88;;;0.30;;
48871;SDS011;36154;51.674;7.824;2022-07-22T00:13:19;1.40;;;0.30;;
48871;SDS011;36154;51.674;7.824;2022-07-22T00:15:44;1.77;;;0.40;;
48871;SDS011;36154;51.674;7.824;2022-07-22T00:18:09;0.93;;;0.40;;
48871;SDS011;36154;51.674;7.824;2022-07-22T00:20:35;1.25;;;0.40;;
48871;SDS011;36154;51.674;7.824;2022-07-22T00:23:00;0.98;;;0.50;;
48871;SDS011;36154;51.674;7.824;2022-07-22T00:25:25;0.57;;;0.30;;
48871;SDS011;36154;51.674;7.824;2022-07-22T00:27:52;1.10;;;0.40;;
48871;SDS011;36154;51.674;7.824;2022-07-22T00:30:17;0.30;;;0.30;;
48871;SDS011;36154;51.674;7.824;2022-07-22T00:32:43;0.57;;;0.40;;
48871;SDS011;36154;51.674;7.824;2022-07-22T00:35:08;1.13;;;0.45;;
48871;SDS011;36154;51.674;7.824;2022-07-22T00:37:33;0.73;;;0.52;;
48871;SDS011;36154;51.674;7.824;2022-07-22T00:39:59;0.85;;;0.32;;
48871;SDS011;36154;51.674;7.824;2022-07-22T00:42:24;0.60;;;0.30;;
48871;SDS011;36154;51.674;7.824;2022-07-22T00:44:49;0.82;;;0.30;;
48871;SDS011;36154;51.674;7.824;2022-07-22T00:47:15;0.95;;;0.45;;
48871;SDS011;36154;51.674;7.824;2022-07-22T00:49:40;2.40;;;0.47;;
48871;SDS011;36154;51.674;7.824;2022-07-22T00:52:05;3.08;;;0.50;;
48871;SDS011;36154;51.674;7.824;2022-07-22T00:54:31;1.95;;;0.40;;
48871;SDS011;36154;51.674;7.824;2022-07-22T00:56:57;2.03;;;0.50;;
48871;SDS011;36154;51.674;7.824;2022-07-22T00:59:23;1.40;;;0.50;;
48871;SDS011;36154;51.674;7.824;2022-07-22T01:01:48;1.27;;;0.45;;
48871;SDS011;36154;51.674;7.824;2022-07-22T01:04:14;0.90;;;0.50;;
48871;SDS011;36154;51.674;7.824;2022-07-22T01:06:39;1.92;;;0.40;;
48871;SDS011;36154;51.674;7.824;2022-07-22T01:09:09;2.08;;;0.47;;
48871;SDS011;36154;51.674;7.824;2022-07-22T01:11:35;1.00;;;0.40;;
48871;SDS011;36154;51.674;7.824;2022-07-22T01:14:01;4.00;;;0.63;;
48871;SDS011;36154;51.674;7.824;2022-07-22T01:16:26;3.20;;;0.60;;
48871;SDS011;36154;51.674;7.824;2022-07-22T01:18:52;0.60;;;0.50;;
48871;SDS011;36154;51.674;7.824;2022-07-22T01:21:17;0.63;;;0.47;;
48871;SDS011;36154;51.674;7.824;2022-07-22T01:23:43;3.80;;;0.60;;
48871;SDS011;36154;51.674;7.824;2022-07-22T01:26:09;1.80;;;0.50;;
48871;SDS011;36154;51.674;7.824;2022-07-22T01:28:34;1.95;;;0.88;;
48871;SDS011;36154;51.674;7.824;2022-07-22T01:30:59;1.95;;;0.60;;
48871;SDS011;36154;51.674;7.824;2022-07-22T01:33:25;3.05;;;0.70;;
48871;SDS011;36154;51.674;7.824;2022-07-22T01:35:51;1.75;;;0.30;;
48871;SDS011;36154;51.674;7.824;2022-07-22T01:38:17;2.40;;;0.50;;
48871;SDS011;36154;51.674;7.824;2022-07-22T01:40:43;1.50;;;0.65;;
48871;SDS011;36154;51.674;7.824;2022-07-22T01:43:09;0.63;;;0.43;;
48871;SDS011;36154;51.674;7.824;2022-07-22T01:45:35;1.52;;;0.75;;
48871;SDS011;36154;51.674;7.824;2022-07-22T01:48:01;1.00;;;0.40;;
48871;SDS011;36154;51.674;7.824;2022-07-22T01:50:27;6.45;;;0.75;;
48871;SDS011;36154;51.674;7.824;2022-07-22T01:52:53;0.50;;;0.50;;
48871;SDS011;36154;51.674;7.824;2022-07-22T01:55:18;2.03;;;0.90;;
48871;SDS011;36154;51.674;7.824;2022-07-22T01:57:43;0.95;;;0.50;;
48871;SDS011;36154;51.674;7.824;2022-07-22T02:00:09;2.65;;;0.30;;
48871;SDS011;36154;51.674;7.824;2022-07-22T02:02:35;0.35;;;0.30;;
48871;SDS011;36154;51.674;7.824;2022-07-22T02:05:02;0.32;;;0.30;;
48871;SDS011;36154;51.674;7.824;2022-07-22T02:07:29;1.70;;;0.30;;
48871;SDS011;36154;51.674;7.824;2022-07-22T02:09:54;1.30;;;0.30;;
48871;SDS011;36154;51.674;7.824;2022-07-22T02:12:19;1.02;;;0.35;;
48871;SDS011;36154;51.674;7.824;2022-07-22T02:14:45;0.35;;;0.30;;
48871;SDS011;36154;51.674;7.824;2022-07-22T02:17:11;1.40;;;0.30;;
48871;SDS011;36154;51.674;7.824;2022-07-22T02:19:37;1.60;;;0.40;;
48871;SDS011;36154;51.674;7.824;2022-07-22T02:22:02;0.80;;;0.32;;
48871;SDS011;36154;51.674;7.824;2022-07-22T02:24:28;0.40;;;0.30;;
48871;SDS011;36154;51.674;7.824;2022-07-22T02:26:53;0.55;;;0.30;;
48871;SDS011;36154;51.674;7.824;2022-07-22T02:29:18;0.68;;;0.55;;
48871;SDS011;36154;51.674;7.824;2022-07-22T02:31:44;2.63;;;0.50;;
48871;SDS011;36154;51.674;7.824;2022-07-22T02:34:10;0.57;;;0.40;;
48871;SDS011;36154;51.674;7.824;2022-07-22T02:36:35;1.67;;;0.30;;
48871;SDS011;36154;51.674;7.824;2022-07-22T02:39:01;1.27;;;0.32;;
48871;SDS011;36154;51.674;7.824;2022-07-22T02:41:26;0.52;;;0.25;;
48871;SDS011;36154;51.674;7.824;2022-07-22T02:43:51;0.65;;;0.40;;
48871;SDS011;36154;51.674;7.824;2022-07-22T02:46:20;0.30;;;0.30;;
48871;SDS011;36154;51.674;7.824;2022-07-22T02:48:47;0.80;;;0.35;;
48871;SDS011;36154;51.674;7.824;2022-07-22T02:51:12;0.50;;;0.50;;
48871;SDS011;36154;51.674;7.824;2022-07-22T02:53:37;2.97;;;0.65;;
48871;SDS011;36154;51.674;7.824;2022-07-22T02:56:03;0.88;;;0.55;;
48871;SDS011;36154;51.674;7.824;2022-07-22T02:58:28;1.42;;;0.60;;
48871;SDS011;36154;51.674;7.824;2022-07-22T03:00:53;0.93;;;0.50;;
48871;SDS011;36154;51.674;7.824;2022-07-22T03:03:19;1.50;;;0.70;;
48871;SDS011;36154;51.674;7.824;2022-07-22T03:05:44;1.75;;;0.50;;
48871;SDS011;36154;51.674;7.824;2022-07-22T03:08:09;1.07;;;0.40;;
48871;SDS011;36154;51.674;7.824;2022-07-22T03:10:36;2.40;;;0.40;;
48871;SDS011;36154;51.674;7.824;2022-07-22T03:13:01;0.38;;;0.38;;
48871;SDS011;36154;51.674;7.824;2022-07-22T03:15:27;1.30;;;0.40;;
48871;SDS011;36154;51.674;7.824;2022-07-22T03:17:52;0.55;;;0.40;;
48871;SDS011;36154;51.674;7.824;2022-07-22T03:20:17;0.60;;;0.47;;
48871;SDS011;36154;51.674;7.824;2022-07-22T03:22:42;0.77;;;0.50;;
48871;SDS011;36154;51.674;7.824;2022-07-22T03:25:08;0.75;;;0.60;;
48871;SDS011;36154;51.674;7.824;2022-07-22T03:27:33;0.70;;;0.43;;
48871;SDS011;36154;51.674;7.824;2022-07-22T03:29:58;2.15;;;0.70;;
48871;SDS011;36154;51.674;7.824;2022-07-22T03:32:24;1.80;;;0.40;;
48871;SDS011;36154;51.674;7.824;2022-07-22T03:34:49;1.17;;;0.60;;
48871;SDS011;36154;51.674;7.824;2022-07-22T03:37:14;1.75;;;0.70;;
48871;SDS011;36154;51.674;7.824;2022-07-22T03:39:39;0.70;;;0.60;;
48871;SDS011;36154;51.674;7.824;2022-07-22T03:42:05;1.52;;;0.50;;
48871;SDS011;36154;51.674;7.824;2022-07-22T03:44:30;0.65;;;0.60;;
48871;SDS011;36154;51.674;7.824;2022-07-22T03:46:55;2.07;;;0.57;;
48871;SDS011;36154;51.674;7.824;2022-07-22T03:49:20;1.02;;;0.60;;
48871;SDS011;36154;51.674;7.824;2022-07-22T03:51:46;1.80;;;0.80;;
48871;SDS011;36154;51.674;7.824;2022-07-22T03:54:12;3.00;;;0.60;;
48871;SDS011;36154;51.674;7.824;2022-07-22T03:56:37;3.42;;;0.70;;
48871;SDS011;36154;51.674;7.824;2022-07-22T03:59:02;0.60;;;0.60;;
48871;SDS011;36154;51.674;7.824;2022-07-22T04:01:28;1.13;;;0.60;;
48871;SDS011;36154;51.674;7.824;2022-07-22T04:03:53;1.20;;;0.75;;
48871;SDS011;36154;51.674;7.824;2022-07-22T04:06:18;1.35;;;0.65;;
48871;SDS011;36154;51.674;7.824;2022-07-22T04:08:44;1.85;;;0.95;;
48871;SDS011;36154;51.674;7.824;2022-07-22T04:11:09;2.15;;;0.70;;
48871;SDS011;36154;51.674;7.824;2022-07-22T04:13:35;0.73;;;0.73;;
48871;SDS011;36154;51.674;7.824;2022-07-22T04:16:00;1.75;;;0.45;;
48871;SDS011;36154;51.674;7.824;2022-07-22T04:18:25;4.63;;;0.95;;
48871;SDS011;36154;51.674;7.824;2022-07-22T04:20:50;1.67;;;0.93;;
48871;SDS011;36154;51.674;7.824;2022-07-22T04:23:16;1.35;;;0.70;;
48871;SDS011;36154;51.674;7.824;2022-07-22T04:25:41;1.75;;;1.05;;
48871;SDS011;36154;51.674;7.824;2022-07-22T04:28:07;3.25;;;0.82;;
48871;SDS011;36154;51.674;7.824;2022-07-22T04:30:32;2.58;;;1.05;;
48871;SDS011;36154;51.674;7.824;2022-07-22T04:32:57;2.97;;;1.00;;
48871;SDS011;36154;51.674;7.824;2022-07-22T04:35:23;4.25;;;1.02;;
48871;SDS011;36154;51.674;7.824;2022-07-22T04:37:49;2.58;;;0.77;;
48871;SDS011;36154;51.674;7.824;2022-07-22T04:40:14;1.33;;;0.70;;
48871;SDS011;36154;51.674;7.824;2022-07-22T04:42:40;1.23;;;0.60;;
48871;SDS011;36154;51.674;7.824;2022-07-22T04:45:05;2.63;;;0.97;;
48871;SDS011;36154;51.674;7.824;2022-07-22T04:47:30;1.95;;;0.77;;
48871;SDS011;36154;51.674;7.824;2022-07-22T04:49:56;0.75;;;0.60;;
48871;SDS011;36154;51.674;7.824;2022-07-22T04:52:21;2.67;;;1.17;;
48871;SDS011;36154;51.674;7.824;2022-07-22T04:54:49;3.75;;;1.27;;
48871;SDS011;36154;51.674;7.824;2022-07-22T04:57:14;2.08;;;0.90;;
48871;SDS011;36154;51.674;7.824;2022-07-22T04:59:40;2.20;;;1.08;;
48871;SDS011;36154;51.674;7.824;2022-07-22T05:02:05;4.27;;;1.10;;
48871;SDS011;36154;51.674;7.824;2022-07-22T05:04:30;1.42;;;0.90;;
48871;SDS011;36154;51.674;7.824;2022-07-22T05:06:55;3.37;;;1.00;;
48871;SDS011;36154;51.674;7.824;2022-07-22T05:09:21;3.03;;;1.53;;
48871;SDS011;36154;51.674;7.824;2022-07-22T05:11:46;1.80;;;1.02;;
48871;SDS011;36154;51.674;7.824;2022-07-22T05:14:11;2.65;;;0.82;;
48871;SDS011;36154;51.674;7.824;2022-07-22T05:16:37;1.90;;;1.03;;
48871;SDS011;36154;51.674;7.824;2022-07-22T05:19:02;3.30;;;1.10;;
48871;SDS011;36154;51.674;7.824;2022-07-22T05:21:28;3.38;;;1.20;;
48871;SDS011;36154;51.674;7.824;2022-07-22T05:23:54;4.47;;;1.20;;
48871;SDS011;36154;51.674;7.824;2022-07-22T05:26:19;5.57;;;1.17;;
48871;SDS011;36154;51.674;7.824;2022-07-22T05:28:44;1.02;;;0.65;;
48871;SDS011;36154;51.674;7.824;2022-07-22T05:31:09;1.50;;;1.05;;
48871;SDS011;36154;51.674;7.824;2022-07-22T05:33:35;4.65;;;1.08;;
48871;SDS011;36154;51.674;7.824;2022-07-22T05:36:00;1.55;;;0.90;;
48871;SDS011;36154;51.674;7.824;2022-07-22T05:38:27;3.65;;;0.85;;
48871;SDS011;36154;51.674;7.824;2022-07-22T05:40:52;1.58;;;0.77;;
48871;SDS011;36154;51.674;7.824;2022-07-22T05:43:18;3.35;;;0.80;;
48871;SDS011;36154;51.674;7.824;2022-07-22T05:45:44;3.63;;;0.98;;
48871;SDS011;36154;51.674;7.824;2022-07-22T05:48:09;4.38;;;1.27;;
48871;SDS011;36154;51.674;7.824;2022-07-22T05:50:35;2.70;;;0.90;;
48871;SDS011;36154;51.674;7.824;2022-07-22T05:53:01;1.10;;;0.90;;
48871;SDS011;36154;51.674;7.824;2022-07-22T05:55:26;2.03;;;0.85;;
48871;SDS011;36154;51.674;7.824;2022-07-22T05:57:51;2.83;;;1.00;;
48871;SDS011;36154;51.674;7.824;2022-07-22T06:00:17;1.95;;;0.90;;
48871;SDS011;36154;51.674;7.824;2022-07-22T06:02:42;4.18;;;1.23;;
48871;SDS011;36154;51.674;7.824;2022-07-22T06:05:08;2.60;;;0.93;;
48871;SDS011;36154;51.674;7.824;2022-07-22T06:07:33;3.17;;;1.00;;
48871;SDS011;36154;51.674;7.824;2022-07-22T06:09:58;5.03;;;1.00;;
48871;SDS011;36154;51.674;7.824;2022-07-22T06:12:23;1.55;;;0.80;;
48871;SDS011;36154;51.674;7.824;2022-07-22T06:14:49;2.63;;;1.20;;
48871;SDS011;36154;51.674;7.824;2022-07-22T06:17:14;3.80;;;0.90;;
48871;SDS011;36154;51.674;7.824;2022-07-22T06:19:39;2.05;;;0.85;;
48871;SDS011;36154;51.674;7.824;2022-07-22T06:22:05;2.17;;;0.80;;
48871;SDS011;36154;51.674;7.824;2022-07-22T06:24:30;3.80;;;1.10;;
48871;SDS011;36154;51.674;7.824;2022-07-22T06:26:56;2.92;;;1.20;;
48871;SDS011;36154;51.674;7.824;2022-07-22T06:29:21;3.42;;;1.25;;
48871;SDS011;36154;51.674;7.824;2022-07-22T06:31:46;4.65;;;1.00;;
48871;SDS011;36154;51.674;7.824;2022-07-22T06:34:11;3.78;;;1.05;;
48871;SDS011;36154;51.674;7.824;2022-07-22T06:36:37;4.53;;;1.00;;
48871;SDS011;36154;51.674;7.824;2022-07-22T06:39:02;3.10;;;1.02;;
48871;SDS011;36154;51.674;7.824;2022-07-22T06:41:28;3.33;;;1.33;;
48871;SDS011;36154;51.674;7.824;2022-07-22T06:43:53;2.25;;;1.00;;
48871;SDS011;36154;51.674;7.824;2022-07-22T06:46:18;2.53;;;1.20;;
48871;SDS011;36154;51.674;7.824;2022-07-22T06:48:44;2.47;;;1.20;;
48871;SDS011;36154;51.674;7.824;2022-07-22T06:51:09;2.97;;;1.10;;
48871;SDS011;36154;51.674;7.824;2022-07-22T06:53:34;4.05;;;1.48;;
48871;SDS011;36154;51.674;7.824;2022-07-22T06:56:00;4.38;;;0.85;;
48871;SDS011;36154;51.674;7.824;2022-07-22T06:58:25;3.00;;;1.05;;
48871;SDS011;36154;51.674;7.824;2022-07-22T07:00:50;2.35;;;0.90;;
48871;SDS011;36154;51.674;7.824;2022-07-22T07:03:16;1.13;;;0.85;;
48871;SDS011;36154;51.674;7.824;2022-07-22T07:05:41;3.10;;;1.20;;
48871;SDS011;36154;51.674;7.824;2022-07-22T07:08:06;2.63;;;1.55;;
48871;SDS011;36154;51.674;7.824;2022-07-22T07:10:32;3.00;;;1.10;;
48871;SDS011;36154;51.674;7.824;2022-07-22T07:12:57;2.60;;;1.15;;
48871;SDS011;36154;51.674;7.824;2022-07-22T07:15:23;1.75;;;0.95;;
48871;SDS011;36154;51.674;7.824;2022-07-22T07:17:50;3.97;;;1.13;;
48871;SDS011;36154;51.674;7.824;2022-07-22T07:20:15;3.50;;;1.02;;
48871;SDS011;36154;51.674;7.824;2022-07-22T07:22:41;1.20;;;1.00;;
48871;SDS011;36154;51.674;7.824;2022-07-22T07:25:07;4.67;;;1.10;;
48871;SDS011;36154;51.674;7.824;2022-07-22T07:27:33;2.13;;;1.10;;
48871;SDS011;36154;51.674;7.824;2022-07-22T07:29:58;3.70;;;1.08;;
48871;SDS011;36154;51.674;7.824;2022-07-22T07:32:23;2.63;;;1.45;;
48871;SDS011;36154;51.674;7.824;2022-07-22T07:34:49;1.53;;;0.77;;
48871;SDS011;36154;51.674;7.824;2022-07-22T07:37:14;5.70;;;1.20;;
48871;SDS011;36154;51.674;7.824;2022-07-22T07:39:39;1.83;;;0.85;;
48871;SDS011;36154;51.674;7.824;2022-07-22T07:42:04;1.95;;;1.00;;
48871;SDS011;36154;51.674;7.824;2022-07-22T07:44:30;6.35;;;1.10;;
48871;SDS011;36154;51.674;7.824;2022-07-22T07:46:55;6.63;;;1.33;;
48871;SDS011;36154;51.674;7.824;2022-07-22T07:49:20;3.90;;;1.30;;
48871;SDS011;36154;51.674;7.824;2022-07-22T07:51:45;7.85;;;1.65;;
48871;SDS011;36154;51.674;7.824;2022-07-22T07:54:11;5.72;;;1.60;;
48871;SDS011;36154;51.674;7.824;2022-07-22T07:56:36;5.20;;;1.20;;
48871;SDS011;36154;51.674;7.824;2022-07-22T07:59:02;4.80;;;1.58;;
48871;SDS011;36154;51.674;7.824;2022-07-22T08:01:27;1.85;;;1.50;;
48871;SDS011;36154;51.674;7.824;2022-07-22T08:03:52;4.68;;;1.60;;
48871;SDS011;36154;51.674;7.824;2022-07-22T08:06:18;5.13;;;1.50;;
48871;SDS011;36154;51.674;7.824;2022-07-22T08:08:43;4.20;;;1.50;;
48871;SDS011;36154;51.674;7.824;2022-07-22T08:11:08;3.40;;;1.30;;
48871;SDS011;36154;51.674;7.824;2022-07-22T08:13:33;5.63;;;1.15;;
48871;SDS011;36154;51.674;7.824;2022-07-22T08:15:59;7.03;;;1.45;;
48871;SDS011;36154;51.674;7.824;2022-07-22T08:18:25;4.07;;;1.27;;
48871;SDS011;36154;51.674;7.824;2022-07-22T08:20:51;2.90;;;1.27;;
48871;SDS011;36154;51.674;7.824;2022-07-22T08:23:17;3.40;;;1.02;;
48871;SDS011;36154;51.674;7.824;2022-07-22T08:25:42;2.50;;;1.15;;
48871;SDS011;36154;51.674;7.824;2022-07-22T08:28:07;5.75;;;1.50;;
48871;SDS011;36154;51.674;7.824;2022-07-22T08:30:33;4.50;;;1.05;;
48871;SDS011;36154;51.674;7.824;2022-07-22T08:32:58;3.85;;;1.15;;
48871;SDS011;36154;51.674;7.824;2022-07-22T08:35:23;4.38;;;1.35;;
48871;SDS011;36154;51.674;7.824;2022-07-22T08:37:49;4.40;;;1.05;;
48871;SDS011;36154;51.674;7.824;2022-07-22T08:40:14;5.00;;;1.55;;
48871;SDS011;36154;51.674;7.824;2022-07-22T08:42:42;2.88;;;1.20;;
48871;SDS011;36154;51.674;7.824;2022-07-22T08:45:09;3.00;;;1.10;;
48871;SDS011;36154;51.674;7.824;2022-07-22T08:47:36;1.90;;;0.95;;
48871;SDS011;36154;51.674;7.824;2022-07-22T08:50:02;2.78;;;0.80;;
48871;SDS011;36154;51.674;7.824;2022-07-22T08:52:28;1.33;;;0.90;;
48871;SDS011;36154;51.674;7.824;2022-07-22T08:54:53;2.15;;;0.95;;
48871;SDS011;36154;51.674;7.824;2022-07-22T08:57:18;1.25;;;0.70;;
48871;SDS011;36154;51.674;7.824;2022-07-22T08:59:56;4.18;;;1.10;;
48871;SDS011;36154;51.674;7.824;2022-07-22T09:02:23;1.20;;;0.60;;
48871;SDS011;36154;51.674;7.824;2022-07-22T09:04:50;3.92;;;1.00;;
48871;SDS011;36154;51.674;7.824;2022-07-22T09:07:24;5.10;;;1.13;;
48871;SDS011;36154;51.674;7.824;2022-07-22T09:09:51;3.58;;;0.93;;
48871;SDS011;36154;51.674;7.824;2022-07-22T09:12:17;2.17;;;0.73;;
48871;SDS011;36154;51.674;7.824;2022-07-22T09:14:43;1.80;;;0.80;;
48871;SDS011;36154;51.674;7.824;2022-07-22T09:17:21;6.32;;;1.00;;
48871;SDS011;36154;51.674;7.824;2022-07-22T09:19:47;2.85;;;1.17;;
48871;SDS011;36154;51.674;7.824;2022-07-22T09:22:13;3.40;;;1.33;;
48871;SDS011;36154;51.674;7.824;2022-07-22T09:24:38;5.07;;;1.27;;
48871;SDS011;36154;51.674;7.824;2022-07-22T09:27:04;1.73;;;1.40;;
48871;SDS011;36154;51.674;7.824;2022-07-22T09:29:31;2.90;;;1.40;;
48871;SDS011;36154;51.674;7.824;2022-07-22T09:31:56;1.00;;;0.90;;
48871;SDS011;36154;51.674;7.824;2022-07-22T09:34:26;2.20;;;1.52;;
48871;SDS011;36154;51.674;7.824;2022-07-22T09:36:57;1.90;;;1.50;;
48871;SDS011;36154;51.674;7.824;2022-07-22T09:39:28;3.35;;;1.80;;
48871;SDS011;36154;51.674;7.824;2022-07-22T09:41:58;3.60;;;1.80;;
48871;SDS011;36154;51.674;7.824;2022-07-22T09:44:25;2.33;;;1.88;;
48871;SDS011;36154;51.674;7.824;2022-07-22T09:46:50;2.35;;;1.55;;
48871;SDS011;36154;51.674;7.824;2022-07-22T09:49:35;4.28;;;1.58;;
48871;SDS011;36154;51.674;7.824;2022-07-22T09:52:05;1.77;;;1.60;;
48871;SDS011;36154;51.674;7.824;2022-07-22T09:54:31;2.90;;;2.05;;
48871;SDS011;36154;51.674;7.824;2022-07-22T09:56:57;4.60;;;1.77;;
48871;SDS011;36154;51.674;7.824;2022-07-22T09:59:22;4.88;;;2.25;;
48871;SDS011;36154;51.674;7.824;2022-07-22T10:01:49;2.67;;;2.25;;
48871;SDS011;36154;51.674;7.824;2022-07-22T10:04:19;3.35;;;2.30;;
48871;SDS011;36154;51.674;7.824;2022-07-22T10:06:45;4.40;;;2.40;;
48871;SDS011;36154;51.674;7.824;2022-07-22T10:09:13;1.88;;;1.70;;
48871;SDS011;36154;51.674;7.824;2022-07-22T10:11:39;7.10;;;2.17;;
48871;SDS011;36154;51.674;7.824;2022-07-22T10:14:10;4.32;;;1.73;;
48871;SDS011;36154;51.674;7.824;2022-07-22T10:16:42;5.20;;;1.95;;
48871;SDS011;36154;51.674;7.824;2022-07-22T10:19:08;2.72;;;1.65;;
48871;SDS011;36154;51.674;7.824;2022-07-22T10:21:35;4.88;;;1.95;;
48871;SDS011;36154;51.674;7.824;2022-07-22T10:24:10;2.35;;;1.40;;
48871;SDS011;36154;51.674;7.824;2022-07-22T10:27:09;2.10;;;1.58;;
48871;SDS011;36154;51.674;7.824;2022-07-22T10:29:28;3.08;;;1.60;;
48871;SDS011;36154;51.674;7.824;2022-07-22T10:34:42;3.38;;;1.40;;
48871;SDS011;36154;51.674;7.824;2022-07-22T10:40:13;2.08;;;1.70;;
48871;SDS011;36154;51.674;7.824;2022-07-22T10:45:34;1.58;;;1.10;;
48871;SDS011;36154;51.674;7.824;2022-07-22T10:48:03;2.45;;;1.10;;
48871;SDS011;36154;51.674;7.824;2022-07-22T10:53:00;3.58;;;1.40;;
48871;SDS011;36154;51.674;7.824;2022-07-22T10:55:26;3.10;;;1.38;;
48871;SDS011;36154;51.674;7.824;2022-07-22T10:57:51;1.63;;;1.13;;
48871;SDS011;36154;51.674;7.824;2022-07-22T11:00:17;2.83;;;1.50;;
48871;SDS011;36154;51.674;7.824;2022-07-22T11:02:42;2.85;;;1.17;;
48871;SDS011;36154;51.674;7.824;2022-07-22T11:05:08;3.75;;;1.27;;
48871;SDS011;36154;51.674;7.824;2022-07-22T11:07:40;6.07;;;1.67;;
48871;SDS011;36154;51.674;7.824;2022-07-22T11:10:15;8.68;;;2.20;;
48871;SDS011;36154;51.674;7.824;2022-07-22T11:12:42;6.15;;;1.95;;
48871;SDS011;36154;51.674;7.824;2022-07-22T11:15:08;4.20;;;1.50;;
48871;SDS011;36154;51.674;7.824;2022-07-22T11:17:35;8.35;;;2.08;;
48871;SDS011;36154;51.674;7.824;2022-07-22T11:20:05;10.07;;;1.70;;
48871;SDS011;36154;51.674;7.824;2022-07-22T11:22:32;4.50;;;1.55;;
48871;SDS011;36154;51.674;7.824;2022-07-22T11:24:59;7.82;;;1.77;;
48871;SDS011;36154;51.674;7.824;2022-07-22T11:27:29;9.48;;;1.88;;
48871;SDS011;36154;51.674;7.824;2022-07-22T11:29:55;10.43;;;2.05;;
48871;SDS011;36154;51.674;7.824;2022-07-22T11:32:23;3.25;;;1.38;;
48871;SDS011;36154;51.674;7.824;2022-07-22T11:34:50;4.53;;;1.40;;
48871;SDS011;36154;51.674;7.824;2022-07-22T11:37:17;3.05;;;1.35;;
48871;SDS011;36154;51.674;7.824;2022-07-22T11:39:44;3.55;;;1.20;;
48871;SDS011;36154;51.674;7.824;2022-07-22T11:42:10;2.45;;;1.17;;
48871;SDS011;36154;51.674;7.824;2022-07-22T11:44:37;1.13;;;1.00;;
48871;SDS011;36154;51.674;7.824;2022-07-22T11:47:04;4.88;;;1.00;;
48871;SDS011;36154;51.674;7.824;2022-07-22T11:49:31;3.10;;;1.20;;
48871;SDS011;36154;51.674;7.824;2022-07-22T11:52:00;1.00;;;0.95;;
48871;SDS011;36154;51.674;7.824;2022-07-22T11:54:27;3.05;;;1.35;;
48871;SDS011;36154;51.674;7.824;2022-07-22T11:56:52;2.38;;;1.05;;
48871;SDS011;36154;51.674;7.824;2022-07-22T11:59:18;1.88;;;0.80;;
48871;SDS011;36154;51.674;7.824;2022-07-22T12:01:44;0.70;;;0.70;;
48871;SDS011;36154;51.674;7.824;2022-07-22T12:04:12;0.70;;;0.70;;
48871;SDS011;36154;51.674;7.824;2022-07-22T12:06:40;1.02;;;0.70;;
48871;SDS011;36154;51.674;7.824;2022-07-22T12:09:08;0.77;;;0.77;;
48871;SDS011;36154;51.674;7.824;2022-07-22T12:11:36;1.50;;;0.75;;
48871;SDS011;36154;51.674;7.824;2022-07-22T12:14:07;0.70;;;0.70;;
48871;SDS011;36154;51.674;7.824;2022-07-22T12:16:37;1.80;;;0.60;;
48871;SDS011;36154;51.674;7.824;2022-07-22T12:19:21;0.75;;;0.75;;
48871;SDS011;36154;51.674;7.824;2022-07-22T12:21:52;0.68;;;0.68;;
48871;SDS011;36154;51.674;7.824;2022-07-22T12:24:25;0.75;;;0.75;;
48871;SDS011;36154;51.674;7.824;2022-07-22T12:26:52;0.50;;;0.50;;
48871;SDS011;36154;51.674;7.824;2022-07-22T12:29:22;0.70;;;0.70;;
48871;SDS011;36154;51.674;7.824;2022-07-22T12:34:41;0.85;;;0.70;;
48871;SDS011;36154;51.674;7.824;2022-07-22T12:37:11;0.90;;;0.90;;
48871;SDS011;36154;51.674;7.824;2022-07-22T12:39:38;0.77;;;0.77;;
48871;SDS011;36154;51.674;7.824;2022-07-22T12:42:16;0.90;;;0.70;;
48871;SDS011;36154;51.674;7.824;2022-07-22T12:44:50;1.13;;;1.02;;
48871;SDS011;36154;51.674;7.824;2022-07-22T12:47:37;1.13;;;0.70;;
48871;SDS011;36154;51.674;7.824;2022-07-22T12:52:57;1.77;;;0.80;;
48871;SDS011;36154;51.674;7.824;2022-07-22T12:55:24;0.88;;;0.70;;
48871;SDS011;36154;51.674;7.824;2022-07-22T12:57:51;0.98;;;0.75;;
48871;SDS011;36154;51.674;7.824;2022-07-22T13:00:23;1.40;;;0.80;;
48871;SDS011;36154;51.674;7.824;2022-07-22T13:02:54;0.90;;;0.90;;
48871;SDS011;36154;51.674;7.824;2022-07-22T13:05:27;3.80;;;1.10;;
48871;SDS011;36154;51.674;7.824;2022-07-22T13:07:54;1.33;;;1.10;;
48871;SDS011;36154;51.674;7.824;2022-07-22T13:10:20;2.25;;;1.10;;
48871;SDS011;36154;51.674;7.824;2022-07-22T13:12:47;1.50;;;1.40;;
48871;SDS011;36154;51.674;7.824;2022-07-22T13:15:13;1.27;;;1.17;;
48871;SDS011;36154;51.674;7.824;2022-07-22T13:17:39;1.50;;;1.40;;
48871;SDS011;36154;51.674;7.824;2022-07-22T13:20:05;1.98;;;1.50;;
48871;SDS011;36154;51.674;7.824;2022-07-22T13:22:31;1.85;;;1.70;;
48871;SDS011;36154;51.674;7.824;2022-07-22T13:24:57;1.48;;;1.38;;
48871;SDS011;36154;51.674;7.824;2022-07-22T13:27:22;1.50;;;1.40;;
48871;SDS011;36154;51.674;7.824;2022-07-22T13:29:47;1.75;;;1.65;;
48871;SDS011;36154;51.674;7.824;2022-07-22T13:32:13;1.25;;;1.25;;
48871;SDS011;36154;51.674;7.824;2022-07-22T13:34:38;1.55;;;1.40;;
48871;SDS011;36154;51.674;7.824;2022-07-22T13:37:04;2.08;;;1.40;;
48871;SDS011;36154;51.674;7.824;2022-07-22T13:39:29;1.75;;;1.65;;
48871;SDS011;36154;51.674;7.824;2022-07-22T13:41:54;2.33;;;2.13;;
48871;SDS011;36154;51.674;7.824;2022-07-22T13:44:20;3.60;;;2.30;;
48871;SDS011;36154;51.674;7.824;2022-07-22T13:46:45;4.70;;;3.03;;
48871;SDS011;36154;51.674;7.824;2022-07-22T13:49:11;3.70;;;2.80;;
48871;SDS011;36154;51.674;7.824;2022-07-22T13:51:37;5.32;;;2.95;;
48871;SDS011;36154;51.674;7.824;2022-07-22T13:54:02;4.65;;;2.83;;
48871;SDS011;36154;51.674;7.824;2022-07-22T13:56:29;4.70;;;3.28;;
48871;SDS011;36154;51.674;7.824;2022-07-22T13:58:55;4.07;;;3.45;;
48871;SDS011;36154;51.674;7.824;2022-07-22T14:01:20;6.68;;;2.88;;
48871;SDS011;36154;51.674;7.824;2022-07-22T14:03:45;4.93;;;3.00;;
48871;SDS011;36154;51.674;7.824;2022-07-22T14:06:11;5.40;;;3.05;;
48871;SDS011;36154;51.674;7.824;2022-07-22T14:08:36;3.80;;;3.03;;
48871;SDS011;36154;51.674;7.824;2022-07-22T14:11:01;4.68;;;2.80;;
48871;SDS011;36154;51.674;7.824;2022-07-22T14:13:27;3.67;;;3.25;;
48871;SDS011;36154;51.674;7.824;2022-07-22T14:15:52;4.85;;;2.70;;
48871;SDS011;36154;51.674;7.824;2022-07-22T14:18:18;5.00;;;3.53;;
48871;SDS011;36154;51.674;7.824;2022-07-22T14:20:43;7.07;;;3.55;;
48871;SDS011;36154;51.674;7.824;2022-07-22T14:23:09;3.40;;;3.10;;
48871;SDS011;36154;51.674;7.824;2022-07-22T14:25:35;3.75;;;2.65;;
48871;SDS011;36154;51.674;7.824;2022-07-22T14:28:01;5.32;;;2.75;;
48871;SDS011;36154;51.674;7.824;2022-07-22T14:30:27;3.28;;;2.67;;
48871;SDS011;36154;51.674;7.824;2022-07-22T14:32:54;4.20;;;3.13;;
48871;SDS011;36154;51.674;7.824;2022-07-22T14:35:19;4.15;;;3.67;;
48871;SDS011;36154;51.674;7.824;2022-07-22T14:37:45;3.80;;;3.50;;
48871;SDS011;36154;51.674;7.824;2022-07-22T14:40:10;9.87;;;7.77;;
48871;SDS011;36154;51.674;7.824;2022-07-22T14:42:36;9.60;;;6.55;;
48871;SDS011;36154;51.674;7.824;2022-07-22T14:45:01;6.75;;;4.88;;
48871;SDS011;36154;51.674;7.824;2022-07-22T14:47:27;4.78;;;4.15;;
48871;SDS011;36154;51.674;7.824;2022-07-22T14:49:53;5.63;;;3.70;;
48871;SDS011;36154;51.674;7.824;2022-07-22T14:52:18;4.30;;;3.60;;
48871;SDS011;36154;51.674;7.824;2022-07-22T14:54:43;4.05;;;3.75;;
48871;SDS011;36154;51.674;7.824;2022-07-22T14:57:09;4.25;;;3.65;;
48871;SDS011;36154;51.674;7.824;2022-07-22T14:59:34;4.00;;;3.63;;